sensor_id;sensor_type;location;lat;lon;timestamp;temperature;humidity
60868;DHT22;46702;48.370;10.794;2024-01-30T00:01:50;-1.00;99.90
60868;DHT22;46702;48.370;10.794;2024-01-30T00:04:16;-1.00;99.90
60868;DHT22;46702;48.370;10.794;2024-01-30T00:06:43;-1.00;99.90
60868;DHT22;46702;48.370;10.794;2024-01-30T00:09:08;-1.00;99.90
60868;DHT22;46702;48.370;10.794;2024-01-30T00:11:35;-1.00;99.90
60868;DHT22;46702;48.370;10.794;2024-01-30T00:14:01;-1.00;99.90
60868;DHT22;46702;48.370;10.794;2024-01-30T00:16:27;-1.00;99.90
60868;DHT22;46702;48.370;10.794;2024-01-30T00:18:53;-1.00;99.90
60868;DHT22;46702;48.370;10.794;2024-01-30T00:21:20;-1.00;99.90
60868;DHT22;46702;48.370;10.794;2024-01-30T00:23:46;-1.00;99.90
60868;DHT22;46702;48.370;10.794;2024-01-30T00:26:12;-1.00;99.90
60868;DHT22;46702;48.370;10.794;2024-01-30T00:28:43;-1.10;99.90
60868;DHT22;46702;48.370;10.794;2024-01-30T00:31:08;-1.00;99.90
60868;DHT22;46702;48.370;10.794;2024-01-30T00:33:43;-1.10;99.90
60868;DHT22;46702;48.370;10.794;2024-01-30T00:36:09;-1.20;99.90
60868;DHT22;46702;48.370;10.794;2024-01-30T00:38:36;-1.20;99.90
60868;DHT22;46702;48.370;10.794;2024-01-30T00:41:03;-1.20;99.90
60868;DHT22;46702;48.370;10.794;2024-01-30T00:43:32;-1.20;99.90
60868;DHT22;46702;48.370;10.794;2024-01-30T00:45:59;-1.30;99.90
60868;DHT22;46702;48.370;10.794;2024-01-30T00:48:27;-1.30;99.90
60868;DHT22;46702;48.370;10.794;2024-01-30T00:50:53;-1.30;99.90
60868;DHT22;46702;48.370;10.794;2024-01-30T00:53:20;-1.30;99.90
60868;DHT22;46702;48.370;10.794;2024-01-30T00:55:49;-1.30;99.90
60868;DHT22;46702;48.370;10.794;2024-01-30T00:58:14;-1.30;99.90
60868;DHT22;46702;48.370;10.794;2024-01-30T01:00:40;-1.40;99.90
60868;DHT22;46702;48.370;10.794;2024-01-30T01:03:06;-1.50;99.90
60868;DHT22;46702;48.370;10.794;2024-01-30T01:05:31;-1.50;99.90
60868;DHT22;46702;48.370;10.794;2024-01-30T01:07:57;-1.60;99.90
60868;DHT22;46702;48.370;10.794;2024-01-30T01:10:23;-1.60;99.90
60868;DHT22;46702;48.370;10.794;2024-01-30T01:12:49;-1.50;99.90
60868;DHT22;46702;48.370;10.794;2024-01-30T01:15:15;-1.40;99.90
60868;DHT22;46702;48.370;10.794;2024-01-30T01:17:41;-1.40;99.90
60868;DHT22;46702;48.370;10.794;2024-01-30T01:20:07;-1.30;99.90
60868;DHT22;46702;48.370;10.794;2024-01-30T01:22:34;-1.30;99.90
60868;DHT22;46702;48.370;10.794;2024-01-30T01:25:00;-1.50;99.90
60868;DHT22;46702;48.370;10.794;2024-01-30T01:27:26;-1.50;99.90
60868;DHT22;46702;48.370;10.794;2024-01-30T01:29:52;-1.50;99.90
60868;DHT22;46702;48.370;10.794;2024-01-30T01:32:18;-1.60;99.90
60868;DHT22;46702;48.370;10.794;2024-01-30T01:34:44;-1.60;99.90
60868;DHT22;46702;48.370;10.794;2024-01-30T01:37:09;-1.60;99.90
60868;DHT22;46702;48.370;10.794;2024-01-30T01:39:35;-1.60;99.90
60868;DHT22;46702;48.370;10.794;2024-01-30T01:42:00;-1.60;99.90
60868;DHT22;46702;48.370;10.794;2024-01-30T01:44:27;-1.60;99.90
60868;DHT22;46702;48.370;10.794;2024-01-30T01:46:54;-1.70;99.90
60868;DHT22;46702;48.370;10.794;2024-01-30T01:49:20;-1.70;99.90
60868;DHT22;46702;48.370;10.794;2024-01-30T01:51:47;-1.60;99.90
60868;DHT22;46702;48.370;10.794;2024-01-30T01:54:14;-1.70;99.90
60868;DHT22;46702;48.370;10.794;2024-01-30T01:56:42;-1.70;99.90
60868;DHT22;46702;48.370;10.794;2024-01-30T01:59:08;-1.70;99.90
60868;DHT22;46702;48.370;10.794;2024-01-30T02:01:36;-1.70;99.90
60868;DHT22;46702;48.370;10.794;2024-01-30T02:04:02;-1.70;99.90
60868;DHT22;46702;48.370;10.794;2024-01-30T02:06:28;-1.70;99.90
60868;DHT22;46702;48.370;10.794;2024-01-30T02:08:54;-1.70;99.90
60868;DHT22;46702;48.370;10.794;2024-01-30T02:11:20;-1.70;99.90
60868;DHT22;46702;48.370;10.794;2024-01-30T02:13:46;-1.70;99.90
60868;DHT22;46702;48.370;10.794;2024-01-30T02:16:11;-1.70;99.90
60868;DHT22;46702;48.370;10.794;2024-01-30T02:18:37;-1.60;99.90
60868;DHT22;46702;48.370;10.794;2024-01-30T02:21:07;-1.70;99.90
60868;DHT22;46702;48.370;10.794;2024-01-30T02:23:33;-1.80;99.90
60868;DHT22;46702;48.370;10.794;2024-01-30T02:26:00;-1.90;99.90
60868;DHT22;46702;48.370;10.794;2024-01-30T02:28:26;-2.00;99.90
60868;DHT22;46702;48.370;10.794;2024-01-30T02:30:52;-2.10;99.90
60868;DHT22;46702;48.370;10.794;2024-01-30T02:33:18;-2.10;99.90
60868;DHT22;46702;48.370;10.794;2024-01-30T02:35:44;-2.20;99.90
60868;DHT22;46702;48.370;10.794;2024-01-30T02:38:09;-2.10;99.90
60868;DHT22;46702;48.370;10.794;2024-01-30T02:40:35;-2.10;99.90
60868;DHT22;46702;48.370;10.794;2024-01-30T02:43:02;-2.00;99.90
60868;DHT22;46702;48.370;10.794;2024-01-30T02:45:28;-2.00;99.90
60868;DHT22;46702;48.370;10.794;2024-01-30T02:47:54;-2.00;99.90
60868;DHT22;46702;48.370;10.794;2024-01-30T02:50:19;-1.90;99.90
60868;DHT22;46702;48.370;10.794;2024-01-30T02:52:45;-1.90;99.90
60868;DHT22;46702;48.370;10.794;2024-01-30T02:55:11;-1.90;99.90
60868;DHT22;46702;48.370;10.794;2024-01-30T02:57:37;-2.00;99.90
60868;DHT22;46702;48.370;10.794;2024-01-30T03:00:04;-2.00;99.90
60868;DHT22;46702;48.370;10.794;2024-01-30T03:02:32;-2.00;99.90
60868;DHT22;46702;48.370;10.794;2024-01-30T03:04:58;-2.10;99.90
60868;DHT22;46702;48.370;10.794;2024-01-30T03:07:23;-2.00;99.90
60868;DHT22;46702;48.370;10.794;2024-01-30T03:09:49;-2.10;99.90
60868;DHT22;46702;48.370;10.794;2024-01-30T03:12:15;-2.20;99.90
60868;DHT22;46702;48.370;10.794;2024-01-30T03:14:40;-2.30;99.90
60868;DHT22;46702;48.370;10.794;2024-01-30T03:17:06;-2.40;99.90
60868;DHT22;46702;48.370;10.794;2024-01-30T03:19:32;-2.50;99.90
60868;DHT22;46702;48.370;10.794;2024-01-30T03:21:57;-2.40;99.90
60868;DHT22;46702;48.370;10.794;2024-01-30T03:24:23;-2.40;99.90
60868;DHT22;46702;48.370;10.794;2024-01-30T03:26:48;-2.40;99.90
60868;DHT22;46702;48.370;10.794;2024-01-30T03:29:14;-2.30;99.90
60868;DHT22;46702;48.370;10.794;2024-01-30T03:31:40;-2.30;99.90
60868;DHT22;46702;48.370;10.794;2024-01-30T03:34:06;-2.30;99.90
60868;DHT22;46702;48.370;10.794;2024-01-30T03:36:32;-2.30;99.90
60868;DHT22;46702;48.370;10.794;2024-01-30T03:39:00;-2.40;99.90
60868;DHT22;46702;48.370;10.794;2024-01-30T03:41:25;-2.40;99.90
60868;DHT22;46702;48.370;10.794;2024-01-30T03:43:51;-2.30;99.90
60868;DHT22;46702;48.370;10.794;2024-01-30T03:46:17;-2.30;99.90
60868;DHT22;46702;48.370;10.794;2024-01-30T03:48:42;-2.30;99.90
60868;DHT22;46702;48.370;10.794;2024-01-30T03:51:09;-2.30;99.90
60868;DHT22;46702;48.370;10.794;2024-01-30T03:53:40;-2.30;99.90
60868;DHT22;46702;48.370;10.794;2024-01-30T03:56:06;-2.30;99.90
60868;DHT22;46702;48.370;10.794;2024-01-30T03:58:32;-2.30;99.90
60868;DHT22;46702;48.370;10.794;2024-01-30T04:00:57;-2.20;99.90
60868;DHT22;46702;48.370;10.794;2024-01-30T04:03:23;-2.20;99.90
60868;DHT22;46702;48.370;10.794;2024-01-30T04:05:51;-2.20;99.90
60868;DHT22;46702;48.370;10.794;2024-01-30T04:08:17;-2.20;99.90
60868;DHT22;46702;48.370;10.794;2024-01-30T04:10:43;-2.20;99.90
60868;DHT22;46702;48.370;10.794;2024-01-30T04:13:09;-2.20;99.90
60868;DHT22;46702;48.370;10.794;2024-01-30T04:15:34;-2.20;99.90
60868;DHT22;46702;48.370;10.794;2024-01-30T04:18:00;-2.30;99.90
60868;DHT22;46702;48.370;10.794;2024-01-30T04:20:26;-2.20;99.90
60868;DHT22;46702;48.370;10.794;2024-01-30T04:22:52;-2.20;99.90
60868;DHT22;46702;48.370;10.794;2024-01-30T04:25:17;-2.30;99.90
60868;DHT22;46702;48.370;10.794;2024-01-30T04:27:43;-2.30;99.90
60868;DHT22;46702;48.370;10.794;2024-01-30T04:30:09;-2.20;99.90
60868;DHT22;46702;48.370;10.794;2024-01-30T04:32:36;-2.30;99.90
60868;DHT22;46702;48.370;10.794;2024-01-30T04:35:02;-2.20;99.90
60868;DHT22;46702;48.370;10.794;2024-01-30T04:37:28;-2.20;99.90
60868;DHT22;46702;48.370;10.794;2024-01-30T04:39:54;-2.20;99.90
60868;DHT22;46702;48.370;10.794;2024-01-30T04:42:20;-2.20;99.90
60868;DHT22;46702;48.370;10.794;2024-01-30T04:44:46;-2.20;99.90
60868;DHT22;46702;48.370;10.794;2024-01-30T04:47:12;-2.20;99.90
60868;DHT22;46702;48.370;10.794;2024-01-30T04:49:41;-2.20;99.90
60868;DHT22;46702;48.370;10.794;2024-01-30T04:52:07;-2.10;99.90
60868;DHT22;46702;48.370;10.794;2024-01-30T04:54:33;-2.20;99.90
60868;DHT22;46702;48.370;10.794;2024-01-30T04:57:00;-2.20;99.90
60868;DHT22;46702;48.370;10.794;2024-01-30T04:59:26;-2.20;99.90
60868;DHT22;46702;48.370;10.794;2024-01-30T05:01:51;-2.20;99.90
60868;DHT22;46702;48.370;10.794;2024-01-30T05:04:17;-2.20;99.90
60868;DHT22;46702;48.370;10.794;2024-01-30T05:06:43;-2.20;99.90
60868;DHT22;46702;48.370;10.794;2024-01-30T05:09:09;-2.20;99.90
60868;DHT22;46702;48.370;10.794;2024-01-30T05:11:41;-2.20;99.90
60868;DHT22;46702;48.370;10.794;2024-01-30T05:14:07;-2.10;99.90
60868;DHT22;46702;48.370;10.794;2024-01-30T05:16:34;-2.20;99.90
60868;DHT22;46702;48.370;10.794;2024-01-30T05:19:00;-2.20;99.90
60868;DHT22;46702;48.370;10.794;2024-01-30T05:21:25;-2.20;99.90
60868;DHT22;46702;48.370;10.794;2024-01-30T05:23:51;-2.20;99.90
60868;DHT22;46702;48.370;10.794;2024-01-30T05:26:17;-2.20;99.90
60868;DHT22;46702;48.370;10.794;2024-01-30T05:28:43;-2.20;99.90
60868;DHT22;46702;48.370;10.794;2024-01-30T05:31:11;-2.20;99.90
60868;DHT22;46702;48.370;10.794;2024-01-30T05:33:37;-2.20;99.90
60868;DHT22;46702;48.370;10.794;2024-01-30T05:36:03;-2.20;99.90
60868;DHT22;46702;48.370;10.794;2024-01-30T05:38:29;-2.20;99.90
60868;DHT22;46702;48.370;10.794;2024-01-30T05:40:55;-2.20;99.90
60868;DHT22;46702;48.370;10.794;2024-01-30T05:43:23;-2.10;99.90
60868;DHT22;46702;48.370;10.794;2024-01-30T05:45:49;-2.10;99.90
60868;DHT22;46702;48.370;10.794;2024-01-30T05:48:15;-2.20;99.90
60868;DHT22;46702;48.370;10.794;2024-01-30T05:50:40;-2.20;99.90
60868;DHT22;46702;48.370;10.794;2024-01-30T05:53:06;-2.20;99.90
60868;DHT22;46702;48.370;10.794;2024-01-30T05:55:32;-2.20;99.90
60868;DHT22;46702;48.370;10.794;2024-01-30T05:57:57;-2.20;99.90
60868;DHT22;46702;48.370;10.794;2024-01-30T06:00:23;-2.30;99.90
60868;DHT22;46702;48.370;10.794;2024-01-30T06:02:48;-2.20;99.90
60868;DHT22;46702;48.370;10.794;2024-01-30T06:05:14;-2.20;99.90
60868;DHT22;46702;48.370;10.794;2024-01-30T06:07:40;-2.20;99.90
60868;DHT22;46702;48.370;10.794;2024-01-30T06:10:06;-2.20;99.90
60868;DHT22;46702;48.370;10.794;2024-01-30T06:12:32;-2.20;99.90
60868;DHT22;46702;48.370;10.794;2024-01-30T06:14:58;-2.20;99.90
60868;DHT22;46702;48.370;10.794;2024-01-30T06:17:23;-2.20;99.90
60868;DHT22;46702;48.370;10.794;2024-01-30T06:19:49;-2.30;99.90
60868;DHT22;46702;48.370;10.794;2024-01-30T06:22:15;-2.40;99.90
60868;DHT22;46702;48.370;10.794;2024-01-30T06:24:41;-2.50;99.90
60868;DHT22;46702;48.370;10.794;2024-01-30T06:27:07;-2.40;99.90
60868;DHT22;46702;48.370;10.794;2024-01-30T06:29:32;-2.50;99.90
60868;DHT22;46702;48.370;10.794;2024-01-30T06:31:58;-2.60;99.90
60868;DHT22;46702;48.370;10.794;2024-01-30T06:34:24;-2.60;99.90
60868;DHT22;46702;48.370;10.794;2024-01-30T06:36:51;-2.60;99.90
60868;DHT22;46702;48.370;10.794;2024-01-30T06:39:17;-2.60;99.90
60868;DHT22;46702;48.370;10.794;2024-01-30T06:41:42;-2.60;99.90
60868;DHT22;46702;48.370;10.794;2024-01-30T06:44:08;-2.70;99.90
60868;DHT22;46702;48.370;10.794;2024-01-30T06:46:34;-2.60;99.90
60868;DHT22;46702;48.370;10.794;2024-01-30T06:49:00;-2.50;99.90
60868;DHT22;46702;48.370;10.794;2024-01-30T06:51:26;-2.50;99.90
60868;DHT22;46702;48.370;10.794;2024-01-30T06:53:52;-2.50;99.90
60868;DHT22;46702;48.370;10.794;2024-01-30T06:56:17;-2.50;99.90
60868;DHT22;46702;48.370;10.794;2024-01-30T06:58:49;-2.50;99.90
60868;DHT22;46702;48.370;10.794;2024-01-30T07:01:15;-2.50;99.90
60868;DHT22;46702;48.370;10.794;2024-01-30T07:03:41;-2.40;99.90
60868;DHT22;46702;48.370;10.794;2024-01-30T07:06:07;-2.40;99.90
60868;DHT22;46702;48.370;10.794;2024-01-30T07:08:33;-2.40;99.90
60868;DHT22;46702;48.370;10.794;2024-01-30T07:10:59;-2.40;99.90
60868;DHT22;46702;48.370;10.794;2024-01-30T07:13:24;-2.30;99.90
60868;DHT22;46702;48.370;10.794;2024-01-30T07:15:50;-2.40;99.90
60868;DHT22;46702;48.370;10.794;2024-01-30T07:18:16;-2.30;99.90
60868;DHT22;46702;48.370;10.794;2024-01-30T07:20:41;-2.30;99.90
60868;DHT22;46702;48.370;10.794;2024-01-30T07:23:12;-2.40;99.90
60868;DHT22;46702;48.370;10.794;2024-01-30T07:25:40;-2.40;99.90
60868;DHT22;46702;48.370;10.794;2024-01-30T07:28:07;-2.40;99.90
60868;DHT22;46702;48.370;10.794;2024-01-30T07:30:35;-2.40;99.90
60868;DHT22;46702;48.370;10.794;2024-01-30T07:33:01;-2.40;99.90
60868;DHT22;46702;48.370;10.794;2024-01-30T07:35:26;-2.30;99.90
60868;DHT22;46702;48.370;10.794;2024-01-30T07:37:52;-2.30;99.90
60868;DHT22;46702;48.370;10.794;2024-01-30T07:40:18;-2.30;99.90
60868;DHT22;46702;48.370;10.794;2024-01-30T07:42:44;-2.20;99.90
60868;DHT22;46702;48.370;10.794;2024-01-30T07:45:09;-2.20;99.90
60868;DHT22;46702;48.370;10.794;2024-01-30T07:47:35;-2.20;99.90
60868;DHT22;46702;48.370;10.794;2024-01-30T07:50:01;-2.20;99.90
60868;DHT22;46702;48.370;10.794;2024-01-30T07:52:27;-2.20;99.90
60868;DHT22;46702;48.370;10.794;2024-01-30T07:54:52;-2.10;99.90
60868;DHT22;46702;48.370;10.794;2024-01-30T07:57:18;-2.10;99.90
60868;DHT22;46702;48.370;10.794;2024-01-30T07:59:44;-2.00;99.90
60868;DHT22;46702;48.370;10.794;2024-01-30T08:02:11;-2.00;99.90
60868;DHT22;46702;48.370;10.794;2024-01-30T08:04:37;-2.00;99.90
60868;DHT22;46702;48.370;10.794;2024-01-30T08:07:03;-1.90;99.90
60868;DHT22;46702;48.370;10.794;2024-01-30T08:09:29;-1.90;99.90
60868;DHT22;46702;48.370;10.794;2024-01-30T08:11:55;-1.80;99.90
60868;DHT22;46702;48.370;10.794;2024-01-30T08:14:23;-1.70;99.90
60868;DHT22;46702;48.370;10.794;2024-01-30T08:16:49;-1.70;99.90
60868;DHT22;46702;48.370;10.794;2024-01-30T08:19:15;-1.60;99.90
60868;DHT22;46702;48.370;10.794;2024-01-30T08:21:40;-1.50;99.90
60868;DHT22;46702;48.370;10.794;2024-01-30T08:24:07;-1.40;99.90
60868;DHT22;46702;48.370;10.794;2024-01-30T08:26:33;-1.40;99.90
60868;DHT22;46702;48.370;10.794;2024-01-30T08:28:59;-1.30;99.90
60868;DHT22;46702;48.370;10.794;2024-01-30T08:31:24;-1.30;99.90
60868;DHT22;46702;48.370;10.794;2024-01-30T08:33:53;-1.20;99.90
60868;DHT22;46702;48.370;10.794;2024-01-30T08:36:23;-1.20;99.90
60868;DHT22;46702;48.370;10.794;2024-01-30T08:38:58;-1.10;99.90
60868;DHT22;46702;48.370;10.794;2024-01-30T08:41:25;-1.00;99.90
60868;DHT22;46702;48.370;10.794;2024-01-30T08:43:52;-0.90;99.90
60868;DHT22;46702;48.370;10.794;2024-01-30T08:46:19;-0.90;99.90
60868;DHT22;46702;48.370;10.794;2024-01-30T08:48:46;-0.80;99.90
60868;DHT22;46702;48.370;10.794;2024-01-30T08:51:13;-0.60;99.90
60868;DHT22;46702;48.370;10.794;2024-01-30T08:53:42;-0.60;99.90
60868;DHT22;46702;48.370;10.794;2024-01-30T08:56:08;-0.60;99.90
60868;DHT22;46702;48.370;10.794;2024-01-30T08:58:33;-0.50;99.90
60868;DHT22;46702;48.370;10.794;2024-01-30T09:00:59;-0.40;99.90
60868;DHT22;46702;48.370;10.794;2024-01-30T09:03:25;-0.30;99.90
60868;DHT22;46702;48.370;10.794;2024-01-30T09:05:51;-0.20;99.90
60868;DHT22;46702;48.370;10.794;2024-01-30T09:08:16;-0.10;99.90
60868;DHT22;46702;48.370;10.794;2024-01-30T09:10:42;0.00;99.90
60868;DHT22;46702;48.370;10.794;2024-01-30T09:13:07;0.20;99.90
60868;DHT22;46702;48.370;10.794;2024-01-30T09:15:33;0.30;99.90
60868;DHT22;46702;48.370;10.794;2024-01-30T09:17:59;0.40;99.90
60868;DHT22;46702;48.370;10.794;2024-01-30T09:20:24;0.50;99.90
60868;DHT22;46702;48.370;10.794;2024-01-30T09:22:50;0.60;99.90
60868;DHT22;46702;48.370;10.794;2024-01-30T09:25:16;0.70;99.90
60868;DHT22;46702;48.370;10.794;2024-01-30T09:27:41;0.80;99.90
60868;DHT22;46702;48.370;10.794;2024-01-30T09:30:07;1.00;99.90
60868;DHT22;46702;48.370;10.794;2024-01-30T09:32:46;1.10;99.90
60868;DHT22;46702;48.370;10.794;2024-01-30T09:35:11;1.20;99.90
60868;DHT22;46702;48.370;10.794;2024-01-30T09:37:37;1.40;99.90
60868;DHT22;46702;48.370;10.794;2024-01-30T09:40:03;1.50;99.90
60868;DHT22;46702;48.370;10.794;2024-01-30T09:42:33;1.70;99.90
60868;DHT22;46702;48.370;10.794;2024-01-30T09:45:00;1.80;99.90
60868;DHT22;46702;48.370;10.794;2024-01-30T09:47:26;1.90;99.90
60868;DHT22;46702;48.370;10.794;2024-01-30T09:49:52;2.10;99.90
60868;DHT22;46702;48.370;10.794;2024-01-30T09:52:18;2.30;99.90
60868;DHT22;46702;48.370;10.794;2024-01-30T09:54:45;2.40;99.90
60868;DHT22;46702;48.370;10.794;2024-01-30T09:57:11;2.60;99.90
60868;DHT22;46702;48.370;10.794;2024-01-30T09:59:37;2.70;99.90
60868;DHT22;46702;48.370;10.794;2024-01-30T10:02:03;2.80;99.90
60868;DHT22;46702;48.370;10.794;2024-01-30T10:04:30;3.00;99.90
60868;DHT22;46702;48.370;10.794;2024-01-30T10:07:01;3.20;99.90
60868;DHT22;46702;48.370;10.794;2024-01-30T10:09:27;3.40;99.90
60868;DHT22;46702;48.370;10.794;2024-01-30T10:11:52;3.50;99.90
60868;DHT22;46702;48.370;10.794;2024-01-30T10:14:18;3.60;99.90
60868;DHT22;46702;48.370;10.794;2024-01-30T10:16:46;3.60;99.90
60868;DHT22;46702;48.370;10.794;2024-01-30T10:19:12;3.70;99.90
60868;DHT22;46702;48.370;10.794;2024-01-30T10:21:37;3.80;99.90
60868;DHT22;46702;48.370;10.794;2024-01-30T10:24:03;3.90;99.90
60868;DHT22;46702;48.370;10.794;2024-01-30T10:26:29;4.10;99.90
60868;DHT22;46702;48.370;10.794;2024-01-30T10:28:59;4.40;99.90
60868;DHT22;46702;48.370;10.794;2024-01-30T10:31:25;4.60;99.90
60868;DHT22;46702;48.370;10.794;2024-01-30T10:33:50;4.60;99.90
60868;DHT22;46702;48.370;10.794;2024-01-30T10:36:17;4.60;99.90
60868;DHT22;46702;48.370;10.794;2024-01-30T10:38:43;4.60;99.90
60868;DHT22;46702;48.370;10.794;2024-01-30T10:41:12;4.90;99.90
60868;DHT22;46702;48.370;10.794;2024-01-30T10:44:01;5.00;99.90
60868;DHT22;46702;48.370;10.794;2024-01-30T10:46:31;5.20;99.90
60868;DHT22;46702;48.370;10.794;2024-01-30T10:48:57;5.30;99.90
60868;DHT22;46702;48.370;10.794;2024-01-30T10:51:27;5.30;99.90
60868;DHT22;46702;48.370;10.794;2024-01-30T10:53:53;5.30;99.90
60868;DHT22;46702;48.370;10.794;2024-01-30T10:56:21;5.40;99.90
60868;DHT22;46702;48.370;10.794;2024-01-30T10:58:49;5.50;99.90
60868;DHT22;46702;48.370;10.794;2024-01-30T11:01:15;5.70;99.90
60868;DHT22;46702;48.370;10.794;2024-01-30T11:03:41;5.80;99.90
60868;DHT22;46702;48.370;10.794;2024-01-30T11:06:11;5.90;99.90
60868;DHT22;46702;48.370;10.794;2024-01-30T11:08:37;6.00;99.90
60868;DHT22;46702;48.370;10.794;2024-01-30T11:11:08;6.20;99.90
60868;DHT22;46702;48.370;10.794;2024-01-30T11:13:34;6.40;99.90
60868;DHT22;46702;48.370;10.794;2024-01-30T11:16:04;6.70;99.90
60868;DHT22;46702;48.370;10.794;2024-01-30T11:18:33;6.90;99.90
60868;DHT22;46702;48.370;10.794;2024-01-30T11:20:59;7.00;99.90
60868;DHT22;46702;48.370;10.794;2024-01-30T11:23:28;7.00;99.90
60868;DHT22;46702;48.370;10.794;2024-01-30T11:25:57;6.90;99.90
60868;DHT22;46702;48.370;10.794;2024-01-30T11:28:23;7.00;99.90
60868;DHT22;46702;48.370;10.794;2024-01-30T11:30:49;7.00;99.90
60868;DHT22;46702;48.370;10.794;2024-01-30T11:33:29;7.00;99.90
60868;DHT22;46702;48.370;10.794;2024-01-30T11:35:57;7.10;99.90
60868;DHT22;46702;48.370;10.794;2024-01-30T11:38:26;7.30;99.90
60868;DHT22;46702;48.370;10.794;2024-01-30T11:40:52;7.40;99.90
60868;DHT22;46702;48.370;10.794;2024-01-30T11:43:19;7.50;99.90
60868;DHT22;46702;48.370;10.794;2024-01-30T11:45:45;7.50;99.90
60868;DHT22;46702;48.370;10.794;2024-01-30T11:48:12;7.60;99.90
60868;DHT22;46702;48.370;10.794;2024-01-30T11:50:38;7.60;99.90
60868;DHT22;46702;48.370;10.794;2024-01-30T11:53:04;7.60;99.90
60868;DHT22;46702;48.370;10.794;2024-01-30T11:55:31;7.70;99.90
60868;DHT22;46702;48.370;10.794;2024-01-30T11:58:00;7.90;99.90
60868;DHT22;46702;48.370;10.794;2024-01-30T12:00:26;8.00;99.90
60868;DHT22;46702;48.370;10.794;2024-01-30T12:02:53;8.00;99.90
60868;DHT22;46702;48.370;10.794;2024-01-30T12:05:25;8.10;99.90
60868;DHT22;46702;48.370;10.794;2024-01-30T12:07:51;8.20;99.90
60868;DHT22;46702;48.370;10.794;2024-01-30T12:10:17;8.20;99.90
60868;DHT22;46702;48.370;10.794;2024-01-30T12:12:47;8.20;99.90
60868;DHT22;46702;48.370;10.794;2024-01-30T12:15:14;8.20;99.90
60868;DHT22;46702;48.370;10.794;2024-01-30T12:17:41;8.30;99.90
60868;DHT22;46702;48.370;10.794;2024-01-30T12:20:10;8.30;99.90
60868;DHT22;46702;48.370;10.794;2024-01-30T12:22:38;8.30;99.90
60868;DHT22;46702;48.370;10.794;2024-01-30T12:25:24;8.40;99.90
60868;DHT22;46702;48.370;10.794;2024-01-30T12:27:50;8.50;99.90
60868;DHT22;46702;48.370;10.794;2024-01-30T12:30:17;8.50;99.90
60868;DHT22;46702;48.370;10.794;2024-01-30T12:32:48;8.50;99.90
60868;DHT22;46702;48.370;10.794;2024-01-30T12:35:16;8.60;99.90
60868;DHT22;46702;48.370;10.794;2024-01-30T12:37:46;8.60;99.90
60868;DHT22;46702;48.370;10.794;2024-01-30T12:40:15;8.60;99.90
60868;DHT22;46702;48.370;10.794;2024-01-30T12:42:42;8.60;99.90
60868;DHT22;46702;48.370;10.794;2024-01-30T12:45:11;8.70;99.90
60868;DHT22;46702;48.370;10.794;2024-01-30T12:47:39;8.70;99.90
60868;DHT22;46702;48.370;10.794;2024-01-30T12:50:04;8.80;99.90
60868;DHT22;46702;48.370;10.794;2024-01-30T12:52:31;8.90;99.90
60868;DHT22;46702;48.370;10.794;2024-01-30T12:54:56;9.10;99.90
60868;DHT22;46702;48.370;10.794;2024-01-30T12:57:22;9.10;99.90
60868;DHT22;46702;48.370;10.794;2024-01-30T12:59:48;9.20;99.90
